Weather at Woodview Airfield

Public forecast

Using degrees Celsius for public forecast. Weather courtesy of forecast.io.

Closest aviation weather report (METAR) to Woodview Airfield

Closest report is Belfast International Airport, 21.7 nm (40.1 km) NE. Retrieved 2022/08/15 04:20 UTC (23 minutes ago):

EGAA 150420Z 35004KT 3500 BR SCT002 15/14 Q1003

Closest aviation forecast (TAF) to Woodview Airfield

Closest forecast is Belfast International Airport, 21.7 nm (40.1 km) NE. Retrieved 2022-08-15 00:00 UTC (5 hours ago):

TAF EGAA 142257Z 1500/1524 34006KT 9999 FEW045 TEMPO 1500/1520 7000 SHRA PROB30 TEMPO 1500/1512 3000 +SHRA +TSRA PROB30 TEMPO 1503/1508 BKN004 TEMPO 1506/1524 BKN007 PROB30 TEMPO 1519/1524 BKN004